Time;durP1;ratioP1;P1;durP2;ratioP2;P2;SDS_P1;SDS_P2;PMS_P1;PMS_P2;Temp;Humidity;BMP_temperature;BMP_pressure;BME280_temperature;BME280_humidity;BME280_pressure;Samples;Min_cycle;Max_cycle;Signal;HPM_P1;HPM_P2
2022/10/16 00:02:19;;;;;;;;;;;20.30;99.90;;;;;;4946310;28;19918;-73
2022/10/16 00:04:46;;;;;;;;;;;20.50;99.90;;;;;;4945338;28;20214;-73
2022/10/16 00:07:13;;;;;;;;;;;20.50;99.90;;;;;;4946267;28;19914;-72
2022/10/16 00:09:39;;;;;;;;;;;20.60;99.90;;;;;;4946215;28;19914;-71
2022/10/16 00:12:07;;;;;;;;;;;20.60;99.90;;;;;;4946414;28;19922;-77
2022/10/16 00:14:33;;;;;;;;;;;20.40;99.90;;;;;;4945121;28;20078;-69
2022/10/16 00:17:00;;;;;;;;;;;20.50;99.90;;;;;;4945919;28;19921;-73
2022/10/16 00:19:27;;;;;;;;;;;20.50;99.90;;;;;;4945975;28;19922;-73
2022/10/16 00:21:53;;;;;;;;;;;20.60;99.90;;;;;;4945750;28;19915;-70
2022/10/16 00:24:20;;;;;;;;;;;20.80;99.90;;;;;;4945631;28;19966;-77
2022/10/16 00:26:49;;;;;;;;;;;20.80;99.90;;;;;;4945731;28;19957;-73
2022/10/16 00:29:16;;;;;;;;;;;20.70;99.90;;;;;;4945736;28;19930;-72
2022/10/16 00:31:42;;;;;;;;;;;20.80;99.90;;;;;;4946174;28;20018;-70
2022/10/16 00:34:09;;;;;;;;;;;20.80;99.90;;;;;;4945215;28;19934;-71
2022/10/16 00:36:36;;;;;;;;;;;20.80;99.90;;;;;;4945408;28;19914;-73
2022/10/16 00:39:03;;;;;;;;;;;20.70;99.90;;;;;;4945901;28;19968;-74
2022/10/16 00:41:30;;;;;;;;;;;20.70;99.90;;;;;;4945684;28;19918;-72
2022/10/16 00:43:57;;;;;;;;;;;21.10;99.90;;;;;;4944945;28;19924;-75
2022/10/16 00:46:26;;;;;;;;;;;21.20;99.90;;;;;;4945755;28;19915;-69
2022/10/16 00:48:57;;;;;;;;;;;21.50;99.90;;;;;;4945514;28;20012;-69
2022/10/16 00:51:28;;;;;;;;;;;21.60;99.90;;;;;;4945515;28;19914;-69
2022/10/16 00:53:55;;;;;;;;;;;21.80;99.90;;;;;;4945406;28;20400;-71
2022/10/16 00:56:22;;;;;;;;;;;22.00;99.90;;;;;;4945603;28;20265;-73
2022/10/16 00:58:49;;;;;;;;;;;21.90;99.90;;;;;;4944937;28;19923;-73
2022/10/16 01:01:16;;;;;;;;;;;21.80;99.20;;;;;;4945526;28;19933;-72
2022/10/16 01:03:42;;;;;;;;;;;21.70;99.90;;;;;;4945113;28;20297;-72
2022/10/16 01:06:31;;;;;;;;;;;21.80;99.90;;;;;;4945681;28;20488;-70
2022/10/16 01:09:06;;;;;;;;;;;21.70;99.90;;;;;;4945283;28;19945;-70
2022/10/16 01:11:39;;;;;;;;;;;21.80;99.90;;;;;;4945770;28;19921;-71
2022/10/16 01:14:10;;;;;;;;;;;21.80;99.90;;;;;;4944948;28;19922;-71
2022/10/16 01:17:02;;;;;;;;;;;22.00;99.90;;;;;;4945218;28;19919;-67
2022/10/16 01:19:39;;;;;;;;;;;22.10;99.10;;;;;;4944888;28;20286;-69
2022/10/16 01:22:07;;;;;;;;;;;21.90;99.80;;;;;;4945375;28;19921;-75
2022/10/16 01:24:41;;;;;;;;;;;22.00;99.90;;;;;;4945350;28;19919;-67
2022/10/16 01:27:15;;;;;;;;;;;21.90;99.90;;;;;;4948734;28;19922;-68
2022/10/16 01:29:50;;;;;;;;;;;21.70;99.90;;;;;;4948996;28;19921;-70
2022/10/16 01:32:22;;;;;;;;;;;21.60;99.90;;;;;;4949596;28;19949;-67
2022/10/16 01:34:54;;;;;;;;;;;21.70;99.90;;;;;;4948495;28;19933;-70
2022/10/16 01:37:37;;;;;;;;;;;21.60;99.90;;;;;;4948778;28;19914;-75
2022/10/16 01:40:06;;;;;;;;;;;21.60;99.90;;;;;;4949291;28;20349;-69
2022/10/16 01:42:35;;;;;;;;;;;21.60;99.90;;;;;;4948934;28;20694;-70
2022/10/16 01:45:06;;;;;;;;;;;21.50;99.90;;;;;;4954737;28;20001;-69
2022/10/16 01:47:34;;;;;;;;;;;21.30;99.90;;;;;;4954986;28;20014;-68
2022/10/16 01:50:01;;;;;;;;;;;21.20;99.90;;;;;;4955024;28;20009;-73
2022/10/16 01:52:29;;;;;;;;;;;21.20;99.90;;;;;;4955323;28;19914;-68
2022/10/16 01:54:57;;;;;;;;;;;21.30;99.90;;;;;;4954448;28;20258;-68
2022/10/16 01:57:25;;;;;;;;;;;21.30;99.90;;;;;;4955000;28;19915;-66
2022/10/16 01:59:55;;;;;;;;;;;21.20;99.90;;;;;;4954356;28;19915;-67
2022/10/16 02:02:22;;;;;;;;;;;21.00;99.90;;;;;;4954692;28;19910;-66
2022/10/16 02:05:09;;;;;;;;;;;20.90;99.90;;;;;;4954356;28;19914;-68
2022/10/16 02:07:35;;;;;;;;;;;20.90;99.90;;;;;;4954335;29;20329;-69
2022/10/16 02:10:02;;;;;;;;;;;21.00;99.90;;;;;;4954693;28;19914;-70
2022/10/16 02:12:32;;;;;;;;;;;21.10;99.90;;;;;;4954368;28;20010;-69
2022/10/16 02:14:58;;;;;;;;;;;21.20;99.90;;;;;;4953941;28;19922;-73
2022/10/16 02:17:25;;;;;;;;;;;21.20;99.90;;;;;;4954533;28;19977;-72
2022/10/16 02:19:54;;;;;;;;;;;21.20;99.90;;;;;;4954338;28;19977;-69
2022/10/16 02:22:29;;;;;;;;;;;21.00;99.90;;;;;;4954566;28;19934;-67
2022/10/16 02:24:56;;;;;;;;;;;20.80;99.90;;;;;;4953932;28;19946;-69
2022/10/16 02:27:31;;;;;;;;;;;20.70;99.90;;;;;;4954321;28;20013;-71
2022/10/16 02:30:07;;;;;;;;;;;20.70;99.90;;;;;;4954438;28;20017;-72
2022/10/16 02:32:36;;;;;;;;;;;20.70;99.90;;;;;;4954264;28;19918;-72
2022/10/16 02:35:03;;;;;;;;;;;20.60;99.90;;;;;;4953902;28;19922;-73
2022/10/16 02:37:30;;;;;;;;;;;20.40;99.90;;;;;;4954171;28;19945;-68
2022/10/16 02:39:58;;;;;;;;;;;20.50;99.90;;;;;;4953939;28;19915;-73
2022/10/16 02:42:34;;;;;;;;;;;20.50;99.90;;;;;;4954478;28;20542;-71
2022/10/16 02:45:01;;;;;;;;;;;20.50;99.90;;;;;;4953802;28;19997;-71
2022/10/16 02:47:28;;;;;;;;;;;20.50;99.90;;;;;;4954055;28;20361;-68
2022/10/16 02:49:54;;;;;;;;;;;20.50;99.90;;;;;;4953736;28;20145;-70
2022/10/16 02:52:21;;;;;;;;;;;20.50;99.90;;;;;;4954085;28;19915;-72
2022/10/16 02:54:48;;;;;;;;;;;20.50;99.90;;;;;;4953571;28;19930;-69
2022/10/16 02:57:14;;;;;;;;;;;20.50;99.90;;;;;;4953965;28;19957;-70
2022/10/16 02:59:41;;;;;;;;;;;20.50;99.90;;;;;;4953775;28;19912;-73
2022/10/16 03:02:08;;;;;;;;;;;20.60;99.90;;;;;;4934757;29;20281;-70
2022/10/16 03:04:35;;;;;;;;;;;20.50;99.90;;;;;;4933915;29;20254;-67
2022/10/16 03:07:01;;;;;;;;;;;20.50;99.90;;;;;;4934666;29;20379;-69
2022/10/16 03:09:28;;;;;;;;;;;20.50;99.90;;;;;;4934466;29;19998;-73
2022/10/16 03:11:55;;;;;;;;;;;20.50;99.90;;;;;;4934584;29;20123;-69
2022/10/16 03:14:21;;;;;;;;;;;20.40;99.90;;;;;;4934075;29;19922;-70
2022/10/16 03:16:48;;;;;;;;;;;20.40;99.90;;;;;;4934203;29;19921;-71
2022/10/16 03:19:16;;;;;;;;;;;20.50;99.90;;;;;;4933973;29;19919;-69
2022/10/16 03:21:43;;;;;;;;;;;20.50;99.90;;;;;;4934786;29;19919;-67
2022/10/16 03:24:09;;;;;;;;;;;20.50;99.90;;;;;;4948446;29;20006;-69
2022/10/16 03:26:36;;;;;;;;;;;20.60;99.90;;;;;;4948717;29;19915;-66
2022/10/16 03:29:03;;;;;;;;;;;20.60;99.90;;;;;;4934514;29;19911;-68
2022/10/16 03:31:30;;;;;;;;;;;20.60;99.90;;;;;;4948254;29;20005;-72
2022/10/16 03:33:57;;;;;;;;;;;20.60;99.90;;;;;;4933873;29;20270;-70
2022/10/16 03:36:24;;;;;;;;;;;20.50;99.90;;;;;;4934323;29;20277;-69
2022/10/16 03:38:50;;;;;;;;;;;20.50;99.90;;;;;;4933821;29;19984;-66
2022/10/16 03:41:17;;;;;;;;;;;20.70;99.90;;;;;;4934045;29;19918;-68
2022/10/16 03:43:44;;;;;;;;;;;20.80;99.90;;;;;;4933422;29;20333;-70
2022/10/16 03:46:14;;;;;;;;;;;20.80;99.90;;;;;;4933028;28;19911;-66
2022/10/16 03:48:40;;;;;;;;;;;20.70;99.90;;;;;;4933141;29;19911;-70
2022/10/16 03:51:07;;;;;;;;;;;20.60;99.90;;;;;;4933931;29;19922;-65
2022/10/16 03:53:34;;;;;;;;;;;20.60;99.90;;;;;;4933440;29;19918;-65
2022/10/16 03:56:01;;;;;;;;;;;20.60;99.90;;;;;;4933224;28;20300;-69
2022/10/16 03:58:27;;;;;;;;;;;20.60;99.90;;;;;;4933235;29;20010;-67
2022/10/16 04:00:54;;;;;;;;;;;20.70;99.90;;;;;;4942904;29;19921;-70
2022/10/16 04:03:21;;;;;;;;;;;20.60;99.90;;;;;;4952381;28;19911;-69
2022/10/16 04:05:48;;;;;;;;;;;20.50;99.90;;;;;;4952364;28;19922;-68
2022/10/16 04:08:14;;;;;;;;;;;20.40;99.90;;;;;;4952645;28;19910;-69
2022/10/16 04:10:43;;;;;;;;;;;20.20;99.90;;;;;;4952109;28;19994;-70
2022/10/16 04:13:10;;;;;;;;;;;20.20;99.90;;;;;;4950958;29;20014;-68
2022/10/16 04:15:37;;;;;;;;;;;20.10;99.90;;;;;;4951717;28;19922;-66
2022/10/16 04:18:03;;;;;;;;;;;20.10;99.90;;;;;;4952403;28;20078;-70
2022/10/16 04:20:30;;;;;;;;;;;20.00;99.90;;;;;;4952740;28;19910;-69
2022/10/16 04:22:57;;;;;;;;;;;20.10;99.90;;;;;;4951695;28;20277;-67
2022/10/16 04:25:23;;;;;;;;;;;20.00;99.90;;;;;;4951668;28;19932;-73
2022/10/16 04:27:50;;;;;;;;;;;20.00;99.90;;;;;;4952061;28;19915;-70
2022/10/16 04:30:17;;;;;;;;;;;19.80;99.90;;;;;;4952190;28;19937;-72
2022/10/16 04:32:43;;;;;;;;;;;19.80;99.90;;;;;;4951985;28;19918;-69
2022/10/16 04:35:10;;;;;;;;;;;19.90;99.90;;;;;;4951995;28;19918;-72
2022/10/16 04:37:37;;;;;;;;;;;19.90;99.90;;;;;;4951154;28;19972;-67
2022/10/16 04:40:03;;;;;;;;;;;19.90;99.90;;;;;;4952342;28;19911;-67
2022/10/16 04:42:30;;;;;;;;;;;20.10;99.90;;;;;;4952138;28;19917;-73
2022/10/16 04:44:57;;;;;;;;;;;20.10;99.90;;;;;;4951557;28;19911;-69
2022/10/16 04:47:23;;;;;;;;;;;20.10;99.90;;;;;;4951762;28;19922;-72
2022/10/16 04:49:50;;;;;;;;;;;20.10;99.90;;;;;;4951785;28;19926;-72
2022/10/16 04:52:18;;;;;;;;;;;19.90;99.90;;;;;;4952335;28;19964;-73
2022/10/16 04:54:45;;;;;;;;;;;19.80;99.90;;;;;;4951535;28;19919;-70
2022/10/16 04:57:12;;;;;;;;;;;19.70;99.90;;;;;;4951219;28;19922;-69
2022/10/16 04:59:38;;;;;;;;;;;19.70;99.90;;;;;;4951676;28;20014;-70
2022/10/16 05:02:05;;;;;;;;;;;19.70;99.90;;;;;;4951230;28;19921;-71
2022/10/16 05:04:32;;;;;;;;;;;19.70;99.90;;;;;;4951540;28;19915;-69
2022/10/16 05:06:58;;;;;;;;;;;19.70;99.90;;;;;;4951740;28;19922;-67
2022/10/16 05:09:25;;;;;;;;;;;19.90;99.90;;;;;;4954227;28;19911;-72
2022/10/16 05:11:52;;;;;;;;;;;19.80;99.90;;;;;;4953713;28;19953;-71
2022/10/16 05:14:18;;;;;;;;;;;19.80;99.90;;;;;;4953249;28;19918;-72
2022/10/16 05:16:47;;;;;;;;;;;19.80;99.90;;;;;;4953601;28;20251;-71
2022/10/16 05:19:14;;;;;;;;;;;19.70;99.90;;;;;;4953837;28;19946;-71
2022/10/16 05:21:41;;;;;;;;;;;19.80;99.90;;;;;;4953656;28;19911;-75
2022/10/16 05:24:07;;;;;;;;;;;19.70;99.90;;;;;;4953492;28;20026;-70
2022/10/16 05:26:34;;;;;;;;;;;19.80;99.90;;;;;;4953381;28;19910;-68
2022/10/16 05:29:01;;;;;;;;;;;19.80;99.90;;;;;;4953491;28;19914;-69
2022/10/16 05:31:27;;;;;;;;;;;19.80;99.90;;;;;;4953682;28;20352;-69
2022/10/16 05:33:58;;;;;;;;;;;19.90;99.90;;;;;;4953177;28;19918;-72
2022/10/16 05:36:24;;;;;;;;;;;20.00;99.90;;;;;;4953805;28;19915;-70
2022/10/16 05:38:51;;;;;;;;;;;20.00;99.90;;;;;;4953595;28;19954;-67
2022/10/16 05:41:23;;;;;;;;;;;20.00;99.90;;;;;;4953825;28;19961;-70
2022/10/16 05:43:49;;;;;;;;;;;20.00;99.90;;;;;;4953284;28;20380;-74
2022/10/16 05:46:17;;;;;;;;;;;20.00;99.90;;;;;;4953641;28;19942;-72
2022/10/16 05:48:43;;;;;;;;;;;19.90;99.90;;;;;;4953294;28;19911;-74
2022/10/16 05:51:11;;;;;;;;;;;19.80;99.90;;;;;;4953604;28;19925;-70
2022/10/16 05:53:38;;;;;;;;;;;19.80;99.90;;;;;;4953197;28;19954;-75
2022/10/16 05:56:06;;;;;;;;;;;19.80;99.90;;;;;;4953637;28;20297;-74
2022/10/16 05:58:35;;;;;;;;;;;19.90;99.90;;;;;;4953326;28;19921;-73
2022/10/16 06:01:03;;;;;;;;;;;19.90;99.90;;;;;;4953472;28;19922;-75
2022/10/16 06:03:30;;;;;;;;;;;19.90;99.90;;;;;;4953228;28;19911;-72
2022/10/16 06:05:56;;;;;;;;;;;19.80;99.90;;;;;;4953415;28;19915;-71
2022/10/16 06:08:24;;;;;;;;;;;19.70;99.90;;;;;;4953397;28;20005;-74
2022/10/16 06:11:00;;;;;;;;;;;19.60;99.90;;;;;;4953301;28;19910;-71
2022/10/16 06:13:27;;;;;;;;;;;19.70;99.90;;;;;;4956359;28;20026;-76
2022/10/16 06:15:57;;;;;;;;;;;19.60;99.90;;;;;;4956747;28;20431;-76
2022/10/16 06:18:23;;;;;;;;;;;19.60;99.90;;;;;;4956631;28;19914;-71
2022/10/16 06:20:50;;;;;;;;;;;19.60;99.90;;;;;;4956541;28;19910;-76
2022/10/16 06:23:16;;;;;;;;;;;19.60;99.90;;;;;;4955775;28;20368;-68
2022/10/16 06:25:43;;;;;;;;;;;19.60;99.90;;;;;;4955842;28;19918;-69
2022/10/16 06:28:10;;;;;;;;;;;19.50;99.90;;;;;;4956497;28;19985;-73
2022/10/16 06:30:36;;;;;;;;;;;19.30;99.90;;;;;;4956296;28;19915;-71
2022/10/16 06:33:03;;;;;;;;;;;19.30;99.90;;;;;;4956023;28;19914;-74
2022/10/16 06:35:31;;;;;;;;;;;19.30;99.90;;;;;;4955710;28;19922;-75
2022/10/16 06:37:58;;;;;;;;;;;19.30;99.90;;;;;;4956386;28;19911;-75
2022/10/16 06:40:25;;;;;;;;;;;19.20;99.90;;;;;;4956139;28;19954;-75
2022/10/16 06:42:51;;;;;;;;;;;19.30;99.90;;;;;;4956147;28;19910;-71
2022/10/16 06:45:18;;;;;;;;;;;19.30;99.90;;;;;;4955386;28;19985;-75
2022/10/16 06:47:45;;;;;;;;;;;19.20;99.90;;;;;;4955993;28;20432;-74
2022/10/16 06:50:12;;;;;;;;;;;19.30;99.90;;;;;;4955801;28;19927;-71
2022/10/16 06:52:38;;;;;;;;;;;19.20;99.90;;;;;;4955703;28;19946;-69
2022/10/16 06:55:05;;;;;;;;;;;19.20;99.90;;;;;;4954813;28;19926;-71
2022/10/16 06:57:32;;;;;;;;;;;19.20;99.90;;;;;;4955998;28;19918;-71
2022/10/16 06:59:58;;;;;;;;;;;19.20;99.90;;;;;;4955639;28;20134;-70
2022/10/16 07:02:25;;;;;;;;;;;19.20;99.90;;;;;;4955804;28;20273;-70
2022/10/16 07:04:52;;;;;;;;;;;19.20;99.90;;;;;;4954787;28;20347;-72
2022/10/16 07:07:18;;;;;;;;;;;19.20;99.90;;;;;;4955719;28;19917;-71
2022/10/16 07:09:45;;;;;;;;;;;19.10;99.90;;;;;;4954372;28;20373;-73
2022/10/16 07:12:12;;;;;;;;;;;19.10;99.90;;;;;;4955178;28;19910;-71
2022/10/16 07:14:38;;;;;;;;;;;19.00;99.90;;;;;;4953576;28;20289;-72
2022/10/16 07:17:05;;;;;;;;;;;19.00;99.90;;;;;;4955614;28;19910;-74
2022/10/16 07:19:32;;;;;;;;;;;19.00;99.90;;;;;;4954136;28;19914;-69
2022/10/16 07:21:59;;;;;;;;;;;18.90;99.90;;;;;;4946969;28;19973;-68
2022/10/16 07:24:26;;;;;;;;;;;18.90;99.90;;;;;;4945140;28;20009;-67
2022/10/16 07:26:52;;;;;;;;;;;18.90;99.90;;;;;;4946515;28;19914;-70
2022/10/16 07:29:21;;;;;;;;;;;18.90;99.90;;;;;;4947239;28;20361;-69
2022/10/16 07:31:48;;;;;;;;;;;18.80;99.90;;;;;;4946836;28;20404;-70
2022/10/16 07:34:16;;;;;;;;;;;18.80;99.90;;;;;;4945895;28;19918;-69
2022/10/16 07:36:42;;;;;;;;;;;18.80;99.90;;;;;;4946658;28;19962;-73
2022/10/16 07:39:09;;;;;;;;;;;18.80;99.90;;;;;;4946838;28;19918;-70
2022/10/16 07:41:36;;;;;;;;;;;18.80;99.90;;;;;;4946694;28;20001;-71
2022/10/16 07:44:04;;;;;;;;;;;18.90;99.90;;;;;;4945999;28;20361;-69
2022/10/16 07:46:31;;;;;;;;;;;18.90;99.90;;;;;;4946419;28;19919;-66
2022/10/16 07:48:58;;;;;;;;;;;18.80;99.90;;;;;;4946471;28;19930;-67
2022/10/16 07:51:25;;;;;;;;;;;18.70;99.90;;;;;;4946642;28;20328;-68
2022/10/16 07:53:52;;;;;;;;;;;18.80;99.90;;;;;;4946304;28;19923;-66
2022/10/16 07:56:20;;;;;;;;;;;18.70;99.90;;;;;;4946213;28;19927;-69
2022/10/16 07:58:49;;;;;;;;;;;18.70;99.90;;;;;;4946195;28;20262;-67
2022/10/16 08:01:16;;;;;;;;;;;18.70;99.90;;;;;;4946108;28;19918;-67
2022/10/16 08:03:43;;;;;;;;;;;18.80;99.90;;;;;;4945936;28;19969;-66
2022/10/16 08:06:10;;;;;;;;;;;18.80;99.90;;;;;;4945435;28;19927;-68
2022/10/16 08:08:36;;;;;;;;;;;18.80;99.90;;;;;;4945926;28;19934;-73
2022/10/16 08:11:03;;;;;;;;;;;18.80;99.90;;;;;;4946343;28;19921;-66
2022/10/16 08:13:31;;;;;;;;;;;18.70;99.90;;;;;;4945227;28;19961;-67
2022/10/16 08:15:57;;;;;;;;;;;18.70;99.90;;;;;;4945520;28;19926;-68
2022/10/16 08:18:24;;;;;;;;;;;18.70;99.90;;;;;;4946412;28;19969;-67
2022/10/16 08:20:57;;;;;;;;;;;18.60;99.90;;;;;;4945941;28;20016;-68
2022/10/16 08:23:25;;;;;;;;;;;18.60;99.90;;;;;;4945436;28;20274;-67
2022/10/16 08:25:53;;;;;;;;;;;18.60;99.90;;;;;;4945167;28;19929;-66
2022/10/16 08:28:20;;;;;;;;;;;18.50;99.90;;;;;;4944131;28;19922;-66
2022/10/16 08:30:46;;;;;;;;;;;18.40;99.90;;;;;;4945646;28;20387;-68
2022/10/16 08:33:13;;;;;;;;;;;18.40;99.90;;;;;;4945510;28;20360;-69
2022/10/16 08:35:40;;;;;;;;;;;18.50;99.90;;;;;;4944540;28;19927;-67
2022/10/16 08:38:06;;;;;;;;;;;18.40;99.90;;;;;;4946190;28;19993;-68
2022/10/16 08:40:34;;;;;;;;;;;18.40;99.90;;;;;;4945286;28;20334;-72
2022/10/16 08:43:07;;;;;;;;;;;18.30;99.90;;;;;;4944900;28;19915;-65
2022/10/16 08:45:43;;;;;;;;;;;18.40;99.90;;;;;;4944546;28;19933;-67
2022/10/16 08:48:34;;;;;;;;;;;18.30;99.90;;;;;;4945759;28;19922;-69
2022/10/16 08:51:03;;;;;;;;;;;18.20;99.90;;;;;;4945405;28;20673;-69
2022/10/16 08:53:50;;;;;;;;;;;18.20;99.90;;;;;;4945080;28;19945;-68
2022/10/16 08:56:18;;;;;;;;;;;18.20;99.90;;;;;;4945094;28;19926;-69
2022/10/16 08:58:46;;;;;;;;;;;18.20;99.90;;;;;;4945550;28;19922;-72
2022/10/16 09:01:14;;;;;;;;;;;18.20;99.90;;;;;;4945280;28;19914;-67
2022/10/16 09:03:47;;;;;;;;;;;18.20;99.90;;;;;;4945504;28;20005;-69
2022/10/16 09:06:26;;;;;;;;;;;18.20;99.90;;;;;;4944770;28;19923;-71
2022/10/16 09:09:10;;;;;;;;;;;18.10;99.90;;;;;;4945122;28;19921;-71
2022/10/16 09:11:40;;;;;;;;;;;18.10;99.90;;;;;;4945699;28;20383;-71
2022/10/16 09:14:13;;;;;;;;;;;18.00;99.90;;;;;;4945555;28;19920;-73
2022/10/16 09:16:43;;;;;;;;;;;18.10;99.90;;;;;;4945459;28;20380;-69
2022/10/16 09:19:23;;;;;;;;;;;18.00;99.90;;;;;;4945291;28;19926;-71
2022/10/16 09:21:51;;;;;;;;;;;18.00;99.90;;;;;;4945411;28;20361;-71
2022/10/16 09:24:19;;;;;;;;;;;18.00;99.90;;;;;;4945110;28;19918;-68
2022/10/16 09:26:46;;;;;;;;;;;18.00;99.90;;;;;;4945436;28;20265;-66
2022/10/16 09:29:17;;;;;;;;;;;18.00;99.90;;;;;;4945655;28;20252;-69
2022/10/16 09:31:44;;;;;;;;;;;17.90;99.90;;;;;;4944982;28;19919;-66
2022/10/16 09:34:33;;;;;;;;;;;17.90;99.90;;;;;;4945295;28;19923;-70
2022/10/16 09:37:00;;;;;;;;;;;17.90;99.90;;;;;;4942367;29;20391;-69
2022/10/16 09:39:27;;;;;;;;;;;17.90;99.90;;;;;;4945185;28;19925;-69
2022/10/16 09:41:55;;;;;;;;;;;17.90;99.90;;;;;;4945099;28;19946;-68
2022/10/16 09:44:22;;;;;;;;;;;17.80;99.90;;;;;;4944345;28;19973;-67
2022/10/16 09:46:49;;;;;;;;;;;17.90;99.90;;;;;;4946345;28;19914;-72
2022/10/16 09:49:18;;;;;;;;;;;17.90;99.90;;;;;;4949069;28;20813;-69
2022/10/16 09:51:45;;;;;;;;;;;17.90;99.90;;;;;;4949094;28;19954;-72
2022/10/16 09:54:11;;;;;;;;;;;18.00;99.90;;;;;;4948539;28;19918;-70
2022/10/16 09:56:42;;;;;;;;;;;17.90;99.90;;;;;;4948585;28;19922;-66
2022/10/16 09:59:12;;;;;;;;;;;17.90;99.90;;;;;;4948388;28;19915;-68
2022/10/16 10:01:41;;;;;;;;;;;17.80;99.90;;;;;;4948606;28;19925;-66
2022/10/16 10:04:08;;;;;;;;;;;17.80;99.90;;;;;;4948360;28;20009;-73
2022/10/16 10:06:39;;;;;;;;;;;17.80;99.90;;;;;;4946645;28;20346;-66
2022/10/16 10:09:15;;;;;;;;;;;17.70;99.90;;;;;;4948548;28;19914;-68
2022/10/16 10:11:48;;;;;;;;;;;17.70;99.90;;;;;;4948021;28;19953;-67
2022/10/16 10:14:20;;;;;;;;;;;17.80;99.90;;;;;;4947900;28;20629;-69
2022/10/16 10:16:47;;;;;;;;;;;17.80;99.90;;;;;;4948192;28;19948;-68
2022/10/16 10:19:23;;;;;;;;;;;17.80;99.90;;;;;;4948817;28;19914;-67
2022/10/16 10:21:51;;;;;;;;;;;17.70;99.90;;;;;;4948305;28;19914;-66
2022/10/16 10:24:18;;;;;;;;;;;17.80;99.90;;;;;;4947760;28;19965;-70
2022/10/16 10:26:49;;;;;;;;;;;17.70;99.90;;;;;;4948028;28;19921;-69
2022/10/16 10:29:25;;;;;;;;;;;17.70;99.90;;;;;;4948374;28;19921;-69
2022/10/16 10:31:59;;;;;;;;;;;17.70;99.90;;;;;;4947769;28;20040;-69
2022/10/16 10:34:43;;;;;;;;;;;17.60;99.90;;;;;;4947592;28;19972;-72
2022/10/16 10:37:20;;;;;;;;;;;17.60;99.90;;;;;;4947510;28;19914;-71
2022/10/16 10:39:55;;;;;;;;;;;17.50;99.90;;;;;;4947907;28;19921;-68
2022/10/16 10:42:32;;;;;;;;;;;17.50;99.90;;;;;;4947793;28;19915;-68
2022/10/16 10:45:21;;;;;;;;;;;17.40;99.90;;;;;;4947122;28;20421;-68
2022/10/16 10:48:03;;;;;;;;;;;17.40;99.90;;;;;;4947692;28;20061;-68
2022/10/16 10:50:41;;;;;;;;;;;17.30;99.90;;;;;;4947360;28;19943;-69
2022/10/16 10:53:20;;;;;;;;;;;17.40;99.90;;;;;;4947913;28;19954;-71
2022/10/16 10:55:52;;;;;;;;;;;17.40;99.90;;;;;;4947584;28;20313;-66
2022/10/16 10:58:21;;;;;;;;;;;17.40;99.90;;;;;;4947440;28;20373;-69
2022/10/16 11:00:48;;;;;;;;;;;17.40;99.90;;;;;;4947120;28;20455;-66
2022/10/16 11:03:15;;;;;;;;;;;17.40;99.90;;;;;;4946924;28;19914;-69
2022/10/16 11:05:43;;;;;;;;;;;17.40;99.90;;;;;;4947547;28;20323;-70
2022/10/16 11:08:13;;;;;;;;;;;17.50;99.90;;;;;;4947786;28;19914;-71
2022/10/16 11:10:58;;;;;;;;;;;17.50;99.90;;;;;;4947146;28;19921;-69
2022/10/16 11:13:37;;;;;;;;;;;17.50;99.90;;;;;;4947037;29;19930;-69
2022/10/16 11:16:11;;;;;;;;;;;17.60;99.90;;;;;;4947177;28;20405;-66
2022/10/16 11:18:40;;;;;;;;;;;17.50;99.90;;;;;;4947355;28;20437;-69
2022/10/16 11:21:09;;;;;;;;;;;17.60;99.90;;;;;;4950733;28;20321;-67
2022/10/16 11:23:57;;;;;;;;;;;17.60;99.90;;;;;;4953519;28;19922;-66
2022/10/16 11:26:26;;;;;;;;;;;17.60;99.90;;;;;;4953551;28;19914;-65
2022/10/16 11:28:58;;;;;;;;;;;17.60;99.90;;;;;;4953064;28;20322;-66
2022/10/16 11:31:25;;;;;;;;;;;17.70;99.90;;;;;;4953475;28;19965;-67
2022/10/16 11:33:52;;;;;;;;;;;17.70;99.90;;;;;;4953190;28;19918;-68
2022/10/16 11:36:34;;;;;;;;;;;17.60;99.90;;;;;;4953522;28;19954;-67
2022/10/16 11:39:12;;;;;;;;;;;17.60;99.90;;;;;;4953374;28;19911;-69
2022/10/16 11:41:53;;;;;;;;;;;17.60;99.90;;;;;;4953027;28;20344;-69
2022/10/16 11:44:38;;;;;;;;;;;17.60;99.90;;;;;;4952988;28;19915;-72
2022/10/16 11:47:04;;;;;;;;;;;17.60;99.90;;;;;;4953415;28;19956;-68
2022/10/16 11:49:32;;;;;;;;;;;17.50;99.90;;;;;;4953126;28;20362;-72
2022/10/16 11:52:15;;;;;;;;;;;17.50;99.90;;;;;;4953310;28;19917;-66
2022/10/16 11:54:44;;;;;;;;;;;17.50;99.90;;;;;;4952323;28;19922;-71
2022/10/16 11:57:19;;;;;;;;;;;17.50;99.90;;;;;;4952967;28;19989;-72
2022/10/16 11:59:49;;;;;;;;;;;17.50;99.90;;;;;;4952991;28;19970;-70
2022/10/16 12:02:19;;;;;;;;;;;17.40;99.90;;;;;;4953410;28;19918;-71
2022/10/16 12:04:58;;;;;;;;;;;17.40;99.90;;;;;;4952684;28;19942;-72
2022/10/16 12:07:28;;;;;;;;;;;17.40;99.90;;;;;;4952983;28;19921;-66
2022/10/16 12:09:56;;;;;;;;;;;17.30;99.90;;;;;;4952377;28;20377;-73
2022/10/16 12:12:34;;;;;;;;;;;17.30;99.90;;;;;;4952825;28;20464;-69
2022/10/16 12:15:02;;;;;;;;;;;17.30;99.90;;;;;;4952866;28;19929;-71
2022/10/16 12:17:37;;;;;;;;;;;17.30;99.90;;;;;;4952862;28;19911;-69
2022/10/16 12:20:13;;;;;;;;;;;17.30;99.90;;;;;;4953116;28;19914;-67
2022/10/16 12:22:48;;;;;;;;;;;17.20;99.90;;;;;;4952019;28;19961;-67
2022/10/16 12:25:23;;;;;;;;;;;17.20;99.90;;;;;;4952706;28;19965;-72
2022/10/16 12:28:06;;;;;;;;;;;17.20;99.90;;;;;;4952667;28;19919;-69
2022/10/16 12:30:35;;;;;;;;;;;17.20;99.90;;;;;;4952609;28;19915;-68
2022/10/16 12:33:03;;;;;;;;;;;17.20;99.90;;;;;;4952533;28;20316;-66
2022/10/16 12:35:44;;;;;;;;;;;17.20;99.90;;;;;;4952097;28;19926;-66
2022/10/16 12:38:18;;;;;;;;;;;17.10;99.90;;;;;;4952884;28;19914;-72
2022/10/16 12:40:47;;;;;;;;;;;17.10;99.90;;;;;;4950969;29;19914;-68
2022/10/16 12:43:24;;;;;;;;;;;17.10;99.90;;;;;;4952228;28;19945;-69
2022/10/16 12:46:21;;;;;;;;;;;17.10;99.90;;;;;;4952323;28;19957;-67
2022/10/16 12:48:48;;;;;;;;;;;17.10;99.90;;;;;;4946873;28;19957;-69
2022/10/16 12:51:23;;;;;;;;;;;17.10;99.90;;;;;;4952415;28;19919;-70
2022/10/16 12:53:59;;;;;;;;;;;17.00;99.90;;;;;;4951911;28;20009;-69
2022/10/16 12:56:29;;;;;;;;;;;17.00;99.90;;;;;;4952236;28;19911;-66
2022/10/16 12:58:58;;;;;;;;;;;16.90;99.90;;;;;;4952179;28;19922;-73
2022/10/16 13:01:29;;;;;;;;;;;16.90;99.90;;;;;;4951922;29;19917;-66
2022/10/16 13:04:05;;;;;;;;;;;16.90;99.90;;;;;;4952053;28;20057;-70
2022/10/16 13:06:50;;;;;;;;;;;16.80;99.90;;;;;;4952130;28;19962;-66
2022/10/16 13:09:16;;;;;;;;;;;16.80;99.90;;;;;;4952179;28;20001;-66
2022/10/16 13:11:53;;;;;;;;;;;16.80;99.90;;;;;;4951878;28;20386;-71
2022/10/16 13:14:28;;;;;;;;;;;16.80;99.90;;;;;;4951352;28;19981;-67
2022/10/16 13:16:58;;;;;;;;;;;16.80;99.90;;;;;;4951768;28;19914;-66
2022/10/16 13:19:56;;;;;;;;;;;16.80;99.90;;;;;;4952113;28;19918;-70
2022/10/16 13:22:29;;;;;;;;;;;16.70;99.90;;;;;;4942167;28;19946;-66
2022/10/16 13:24:56;;;;;;;;;;;16.70;99.90;;;;;;4955720;28;19915;-71
2022/10/16 13:27:22;;;;;;;;;;;16.70;99.90;;;;;;4955614;28;20693;-67
2022/10/16 13:29:55;;;;;;;;;;;16.70;99.90;;;;;;4956066;28;19911;-67
2022/10/16 13:32:21;;;;;;;;;;;16.70;99.90;;;;;;4955528;28;20504;-70
2022/10/16 13:34:49;;;;;;;;;;;16.70;99.90;;;;;;4955660;28;19918;-67
2022/10/16 13:37:19;;;;;;;;;;;16.70;99.90;;;;;;4955687;28;19917;-66
2022/10/16 13:39:46;;;;;;;;;;;16.70;99.90;;;;;;4955257;28;19935;-71
2022/10/16 13:42:15;;;;;;;;;;;16.70;99.90;;;;;;4955627;28;20285;-67
2022/10/16 13:44:44;;;;;;;;;;;16.70;99.90;;;;;;4955338;28;19951;-66
2022/10/16 13:47:17;;;;;;;;;;;16.60;99.90;;;;;;4955669;28;20497;-72
2022/10/16 13:49:44;;;;;;;;;;;16.60;99.90;;;;;;4955392;28;19926;-66
2022/10/16 13:52:21;;;;;;;;;;;16.60;99.90;;;;;;4955254;28;20419;-70
2022/10/16 13:54:48;;;;;;;;;;;16.60;99.90;;;;;;4955008;28;19923;-72
2022/10/16 13:57:18;;;;;;;;;;;16.60;99.90;;;;;;4955483;28;20418;-69
2022/10/16 13:59:44;;;;;;;;;;;16.60;99.90;;;;;;4955246;28;20001;-70
2022/10/16 14:02:22;;;;;;;;;;;16.60;99.90;;;;;;4955471;28;19911;-66
2022/10/16 14:04:49;;;;;;;;;;;16.60;99.90;;;;;;4955005;28;20357;-65
2022/10/16 14:07:23;;;;;;;;;;;16.60;99.90;;;;;;4954897;28;20001;-67
2022/10/16 14:09:50;;;;;;;;;;;16.70;99.90;;;;;;4955303;28;19965;-69
2022/10/16 14:12:17;;;;;;;;;;;16.70;99.90;;;;;;4954807;28;19956;-65
2022/10/16 14:14:45;;;;;;;;;;;16.70;99.90;;;;;;4954945;28;19922;-65
2022/10/16 14:17:30;;;;;;;;;;;16.70;99.90;;;;;;4955062;28;19922;-67
2022/10/16 14:19:59;;;;;;;;;;;16.60;99.90;;;;;;4954748;28;19914;-67
2022/10/16 14:22:26;;;;;;;;;;;16.70;99.90;;;;;;4954806;28;19914;-65
2022/10/16 14:24:53;;;;;;;;;;;16.60;99.90;;;;;;4954804;28;19915;-67
2022/10/16 14:27:30;;;;;;;;;;;16.60;99.90;;;;;;4954832;28;19969;-69
2022/10/16 14:30:15;;;;;;;;;;;16.60;99.90;;;;;;4954910;28;19918;-67
2022/10/16 14:32:42;;;;;;;;;;;16.50;99.90;;;;;;4953465;28;20384;-72